Time;durP1;ratioP1;P1;durP2;ratioP2;P2;SDS_P1;SDS_P2;PMS_P1;PMS_P2;Temp;Humidity;BMP_temperature;BMP_pressure;BME280_temperature;BME280_humidity;BME280_pressure;Samples;Min_cycle;Max_cycle;Signal;HPM_P1;HPM_P2
2022/12/02 00:01:53;;;;;;;;;;;;;;;21.37;62.05;100239.22;7313239;19;129370;-74
2022/12/02 00:04:27;;;;;;;39.75;9.48;;;;;;;21.43;61.80;100245.78;7319609;19;129487;-78
2022/12/02 00:06:54;;;;;;;35.40;8.63;;;;;;;21.27;59.84;100227.03;7321305;19;129075;-77
2022/12/02 00:09:34;;;;;;;27.30;8.60;;;;;;;21.21;59.67;100238.81;7322268;19;128867;-79
2022/12/02 00:12:16;;;;;;;36.15;8.88;;;;;;;21.19;59.60;100239.88;7320222;19;129719;-79
2022/12/02 00:14:42;;;;;;;40.22;9.13;;;;;;;21.21;59.65;100244.03;7322937;19;131777;-78
2022/12/02 00:17:07;;;;;;;31.63;8.65;;;;;;;21.27;59.76;100234.88;7323238;19;129054;-79
2022/12/02 00:19:32;;;;;;;15.63;7.75;;;;;;;21.35;59.25;100238.56;7323788;19;128976;-80
2022/12/02 00:21:58;;;;;;;31.17;8.60;;;;;;;21.45;58.69;100234.22;7318760;19;133090;-79
2022/12/02 00:24:23;;;;;;;36.40;8.82;;;;;;;21.58;58.76;100226.22;7321393;19;132250;-74
2022/12/02 00:26:48;;;;;;;39.80;9.07;;;;;;;21.72;57.90;100229.38;7325409;19;129257;-74
2022/12/02 00:29:15;;;;;;;23.48;8.13;;;;;;;21.71;57.93;100212.03;7322373;19;129085;-78
2022/12/02 00:31:40;;;;;;;37.97;8.68;;;;;;;21.85;57.86;100214.34;7321393;19;132414;-78
2022/12/02 00:34:06;;;;;;;41.70;9.03;;;;;;;21.91;57.50;100224.31;7323327;19;130174;-75
2022/12/02 00:36:32;;;;;;;24.92;7.75;;;;;;;21.90;57.26;100212.19;7321081;19;129016;-79
2022/12/02 00:38:57;;;;;;;37.57;8.27;;;;;;;21.88;57.87;100219.34;7320793;19;129222;-78
2022/12/02 00:41:23;;;;;;;24.60;8.60;;;;;;;21.86;58.00;100215.19;7318519;19;132598;-78
2022/12/02 00:46:36;;;;;;;33.22;8.50;;;;;;;21.80;57.84;100216.53;7320432;19;128936;-80
2022/12/02 00:49:11;;;;;;;37.13;9.68;;;;;;;21.77;58.39;100216.78;7319349;19;129377;-76
2022/12/02 00:51:38;;;;;;;34.63;9.10;;;;;;;21.73;57.97;100215.31;7317880;19;132555;-76
2022/12/02 00:54:03;;;;;;;;;;;;;;;21.67;58.51;100215.00;7319343;19;129673;-76
2022/12/02 00:56:29;;;;;;;38.63;9.23;;;;;;;21.64;58.26;100221.31;7313538;19;129052;-73
2022/12/02 00:58:54;;;;;;;32.30;8.55;;;;;;;21.61;58.45;100213.72;7317009;19;129458;-76
2022/12/02 01:01:20;;;;;;;35.73;8.93;;;;;;;21.57;58.74;100203.63;7315531;19;129264;-79
2022/12/02 01:03:45;;;;;;;31.03;8.63;;;;;;;21.54;58.46;100209.94;7319825;19;129494;-74
2022/12/02 01:06:11;;;;;;;59.43;10.07;;;;;;;21.49;59.15;100211.25;7317495;19;130155;-79
2022/12/02 01:08:37;;;;;;;15.30;7.90;;;;;;;21.36;58.87;100185.28;7318966;19;129353;-78
2022/12/02 01:11:02;;;;;;;23.33;8.30;;;;;;;21.39;58.94;100198.09;7320281;19;129866;-78
2022/12/02 01:13:28;;;;;;;29.23;7.90;;;;;;;21.29;59.24;100181.47;7317338;19;129383;-73
2022/12/02 01:15:53;;;;;;;69.13;10.23;;;;;;;21.35;59.67;100204.53;7320633;19;129190;-77
2022/12/02 01:18:19;;;;;;;26.23;8.52;;;;;;;21.31;59.45;100197.88;7325498;19;128988;-78
2022/12/02 01:20:44;;;;;;;43.30;9.43;;;;;;;21.32;59.77;100207.38;7321634;19;130973;-73
2022/12/02 01:23:10;;;;;;;27.97;8.17;;;;;;;21.30;59.37;100200.63;7324852;19;132278;-74
2022/12/02 01:25:35;;;;;;;34.05;8.60;;;;;;;21.28;59.39;100194.69;7326353;19;129572;-78
2022/12/02 01:28:01;;;;;;;35.23;9.10;;;;;;;21.25;59.58;100203.63;7328719;19;128808;-78
2022/12/02 01:30:26;;;;;;;21.27;8.33;;;;;;;21.26;59.48;100202.66;7326965;19;130248;-74
2022/12/02 01:32:51;;;;;;;39.30;8.55;;;;;;;21.23;59.54;100202.91;7325232;19;132012;-77
2022/12/02 01:35:17;;;;;;;39.27;9.27;;;;;;;21.24;59.88;100191.47;7327346;19;129423;-79
2022/12/02 01:37:43;;;;;;;22.58;7.80;;;;;;;21.30;59.41;100204.09;7324072;19;129008;-78
2022/12/02 01:40:10;;;;;;;29.55;7.63;;;;;;;21.36;59.76;100200.13;7320907;19;131636;-78
2022/12/02 01:42:37;;;;;;;46.45;9.25;;;;;;;21.44;59.23;100203.78;7321260;19;133119;-78
2022/12/02 01:45:02;;;;;;;;;;;;;;;21.53;58.69;100202.22;7326379;19;128977;-78
2022/12/02 01:47:28;;;;;;;42.42;9.70;;;;;;;21.64;58.65;100204.78;7323724;19;129065;-77
2022/12/02 01:49:53;;;;;;;36.75;9.32;;;;;;;21.72;58.45;100202.38;7320306;19;129265;-77
2022/12/02 01:52:19;;;;;;;43.55;9.10;;;;;;;21.77;58.27;100205.47;7322812;19;128939;-76
2022/12/02 01:54:44;;;;;;;34.90;9.00;;;;;;;21.66;58.00;100177.56;7323502;19;129209;-78
2022/12/02 01:57:12;;;;;;;27.05;8.13;;;;;;;21.78;58.23;100201.91;7325548;19;128890;-77
2022/12/02 01:59:39;;;;;;;28.10;8.35;;;;;;;21.77;58.27;100201.06;7326666;19;129433;-79
2022/12/02 02:02:23;;;;;;;40.97;8.68;;;;;;;21.72;58.50;100203.22;7320900;19;132496;-78
2022/12/02 02:04:49;;;;;;;43.92;8.75;;;;;;;21.71;58.94;100206.78;7323453;19;130163;-78
2022/12/02 02:07:14;;;;;;;26.88;8.23;;;;;;;21.66;59.01;100193.25;7323750;19;129356;-79
2022/12/02 02:09:39;;;;;;;26.45;8.32;;;;;;;21.52;58.14;100180.44;7324328;19;133096;-78
2022/12/02 02:12:05;;;;;;;36.22;8.65;;;;;;;21.61;58.51;100198.03;7321956;19;130558;-78
2022/12/02 02:14:30;;;;;;;41.53;9.07;;;;;;;21.56;58.97;100191.50;7325093;19;128964;-78
2022/12/02 02:16:56;;;;;;;42.53;10.10;;;;;;;21.52;59.29;100190.91;7324922;19;128976;-74
2022/12/02 02:19:22;;;;;;;28.50;7.93;;;;;;;21.48;59.02;100184.28;7326080;19;129786;-76
2022/12/02 02:21:50;;;;;;;38.17;8.80;;;;;;;21.45;59.27;100189.75;7322576;19;130179;-74
2022/12/02 02:24:15;;;;;;;43.88;9.27;;;;;;;21.39;59.51;100185.03;7323432;19;129472;-74
2022/12/02 02:26:41;;;;;;;47.92;9.43;;;;;;;21.39;59.36;100185.03;7321237;19;128836;-73
2022/12/02 02:29:06;;;;;;;16.27;7.80;;;;;;;21.33;59.12;100180.28;7323019;19;132249;-78
2022/12/02 02:31:31;;;;;;;40.47;8.75;;;;;;;21.34;59.81;100181.09;7321454;19;133134;-78
2022/12/02 02:33:57;;;;;;;30.10;8.60;;;;;;;21.30;59.90;100174.47;7325827;19;128774;-76
2022/12/02 02:36:22;;;;;;;24.73;7.68;;;;;;;21.28;59.35;100179.84;7318079;19;129114;-74
2022/12/02 02:38:48;;;;;;;25.80;7.03;;;;;;;21.25;59.39;100163.56;7321905;19;129473;-77
2022/12/02 02:41:14;;;;;;;42.40;8.67;;;;;;;21.26;59.40;100163.44;7317949;19;132379;-77
2022/12/02 02:43:39;;;;;;;36.87;8.63;;;;;;;21.29;59.61;100157.94;7317192;19;129613;-78
2022/12/02 02:46:06;;;;;;;23.77;8.13;;;;;;;21.34;59.40;100166.25;7320949;19;129056;-77
2022/12/02 02:48:33;;;;;;;25.77;7.68;;;;;;;21.40;59.44;100157.09;7320511;19;133219;-77
2022/12/02 02:50:59;;;;;;;43.92;8.82;;;;;;;21.49;59.40;100154.53;7319185;19;133087;-79
2022/12/02 02:53:26;;;;;;;20.83;7.15;;;;;;;21.58;58.51;100152.97;7327033;19;129631;-78
2022/12/02 02:55:51;;;;;;;29.50;8.38;;;;;;;21.65;58.31;100152.31;7324426;19;128927;-79
2022/12/02 02:58:20;;;;;;;26.70;7.75;;;;;;;21.71;58.16;100154.44;7322291;19;132660;-74
2022/12/02 03:01:18;;;;;;;43.08;8.77;;;;;;;21.78;58.29;100155.63;7323113;19;129661;-78
2022/12/02 03:03:51;;;;;;;16.23;7.13;;;;;;;21.80;57.87;100148.47;7320707;19;129564;-77
2022/12/02 03:06:17;;;;;;;51.67;9.05;;;;;;;21.78;58.00;100145.16;7322206;19;128966;-74
2022/12/02 03:08:46;;;;;;;29.83;8.43;;;;;;;21.74;58.53;100142.88;7325902;19;129583;-79
2022/12/02 03:11:12;;;;;;;35.15;7.90;;;;;;;21.64;58.43;100132.34;7321434;19;132945;-79
2022/12/02 03:13:40;;;;;;;29.42;7.50;;;;;;;21.67;58.40;100146.97;7323903;19;129497;-79
2022/12/02 03:16:08;;;;;;;59.03;9.77;;;;;;;21.67;58.99;100162.66;7322316;19;129293;-77
2022/12/02 03:18:34;;;;;;;30.48;7.72;;;;;;;21.61;59.05;100161.41;7321807;19;132935;-73
2022/12/02 03:21:00;;;;;;;23.20;7.30;;;;;;;21.47;58.77;100148.59;7318935;19;132353;-78
2022/12/02 03:23:26;;;;;;;31.13;7.43;;;;;;;21.44;58.82;100141.00;7320888;19;129137;-74
2022/12/02 03:25:52;;;;;;;49.73;9.10;;;;;;;21.53;59.40;100165.59;7322791;19;129380;-75
2022/12/02 03:28:18;;;;;;;37.80;8.03;;;;;;;21.48;58.99;100152.06;7324208;19;129194;-75
2022/12/02 03:30:44;;;;;;;25.27;7.63;;;;;;;21.45;59.15;100144.47;7320730;19;131901;-78
2022/12/02 03:33:10;;;;;;;27.97;8.17;;;;;;;21.39;59.56;100147.56;7323610;19;129990;-78
2022/12/02 03:35:36;;;;;;;39.30;8.27;;;;;;;21.41;59.33;100151.72;7322150;19;128914;-79
2022/12/02 03:38:01;;;;;;;30.37;8.20;;;;;;;21.40;59.54;100152.66;7318342;19;132093;-73
2022/12/02 03:40:26;;;;;;;35.28;8.75;;;;;;;21.42;59.29;100153.38;7321661;19;130174;-79
2022/12/02 03:42:52;;;;;;;41.28;9.77;;;;;;;21.48;59.55;100138.97;7324310;19;131185;-76
2022/12/02 03:45:18;;;;;;;33.90;8.03;;;;;;;21.60;59.16;100141.41;7325465;19;129180;-75
2022/12/02 03:47:44;;;;;;;30.80;8.30;;;;;;;21.60;58.50;100123.09;7324959;19;129617;-77
2022/12/02 03:50:11;;;;;;;29.45;7.40;;;;;;;21.72;58.59;100119.47;7322663;19;132067;-78
2022/12/02 03:52:36;;;;;;;32.10;7.38;;;;;;;21.98;57.85;100142.66;7320464;19;129137;-75
2022/12/02 03:55:02;;;;;;;35.88;7.93;;;;;;;22.02;57.71;100130.97;7324587;19;128983;-74
2022/12/02 03:57:31;;;;;;;24.63;6.50;;;;;;;22.12;57.03;100127.44;7327452;19;133180;-78
2022/12/02 03:59:57;;;;;;;33.30;7.43;;;;;;;22.19;57.50;100143.47;7314795;19;132120;-73
2022/12/02 04:02:22;;;;;;;28.83;7.13;;;;;;;22.25;57.32;100137.69;7318176;19;128864;-77
2022/12/02 04:04:47;;;;;;;44.85;8.13;;;;;;;22.27;56.75;100131.38;7319820;19;129284;-74
2022/12/02 04:07:13;;;;;;;22.80;6.60;;;;;;;22.29;57.15;100129.47;7320839;19;129744;-73
2022/12/02 04:09:38;;;;;;;34.53;8.05;;;;;;;22.26;56.82;100134.13;7317857;19;132373;-74
2022/12/02 04:12:04;;;;;;;34.53;7.70;;;;;;;22.13;56.86;100109.94;7314980;19;129021;-76
2022/12/02 04:14:29;;;;;;;34.43;7.50;;;;;;;22.24;56.90;100122.94;7318054;19;129418;-75
2022/12/02 04:16:54;;;;;;;36.15;7.85;;;;;;;22.17;56.86;100127.03;7317908;19;131808;-78
2022/12/02 04:19:20;;;;;;;23.43;7.17;;;;;;;22.12;57.23;100123.97;7320880;19;129611;-76
2022/12/02 04:21:46;;;;;;;36.83;7.70;;;;;;;22.05;57.56;100120.25;7316362;19;129020;-77
2022/12/02 04:24:11;;;;;;;35.90;7.80;;;;;;;22.00;57.67;100114.56;7320285;19;129408;-75
2022/12/02 04:26:36;;;;;;;26.05;6.78;;;;;;;21.83;57.96;100097.66;7320493;19;132176;-78
2022/12/02 04:29:02;;;;;;;16.37;6.90;;;;;;;21.87;58.50;100118.22;7322891;19;129360;-79
2022/12/02 04:31:27;;;;;;;34.43;7.20;;;;;;;21.82;57.85;100115.16;7319109;19;129243;-78
2022/12/02 04:33:52;;;;;;;29.67;7.18;;;;;;;21.77;58.21;100114.72;7321797;19;129706;-75
2022/12/02 04:36:18;;;;;;;24.50;7.43;;;;;;;21.72;58.37;100114.22;7320716;19;132285;-77
2022/12/02 04:38:43;;;;;;;35.20;7.70;;;;;;;21.68;58.13;100118.03;7320224;19;129386;-79
2022/12/02 04:41:08;;;;;;;37.40;7.35;;;;;;;21.62;58.69;100113.31;7315792;19;129367;-78
2022/12/02 04:43:34;;;;;;;46.92;8.57;;;;;;;21.60;58.74;100110.00;7322390;19;128997;-78
2022/12/02 04:45:59;;;;;;;33.58;8.00;;;;;;;21.53;59.07;100103.66;7321588;19;129632;-81
2022/12/02 04:48:25;;;;;;;36.42;8.00;;;;;;;21.51;59.21;100104.72;7319691;19;131900;-75
2022/12/02 04:50:50;;;;;;;21.67;6.68;;;;;;;21.46;59.58;100102.47;7323087;19;128775;-78
2022/12/02 04:53:15;;;;;;;33.15;7.47;;;;;;;21.30;59.56;100086.41;7329946;19;128535;-74
2022/12/02 04:55:42;;;;;;;24.20;6.95;;;;;;;21.41;59.48;100109.03;7316790;19;129275;-74
2022/12/02 04:58:07;;;;;;;26.75;6.93;;;;;;;21.37;59.69;100107.66;7315680;19;131173;-74
2022/12/02 05:00:33;;;;;;;45.63;8.00;;;;;;;21.34;59.60;100103.47;7318809;19;129024;-78
2022/12/02 05:03:01;;;;;;;35.50;7.63;;;;;;;21.32;59.69;100105.38;7316778;19;128846;-79
2022/12/02 05:05:26;;;;;;;26.65;6.95;;;;;;;21.24;59.46;100092.09;7315062;19;129244;-74
2022/12/02 05:07:52;;;;;;;50.70;8.38;;;;;;;21.29;59.57;100103.03;7312092;19;129720;-69
2022/12/02 05:10:17;;;;;;;34.47;7.47;;;;;;;21.29;59.74;100110.88;7310644;19;128910;-72
2022/12/02 05:12:43;;;;;;;29.37;7.23;;;;;;;21.29;59.98;100112.66;7312221;19;129748;-69
2022/12/02 05:15:08;;;;;;;13.50;6.22;;;;;;;21.35;59.66;100120.84;7312297;19;129403;-71
2022/12/02 05:17:34;;;;;;;36.30;7.78;;;;;;;21.31;60.41;100119.44;7311266;19;132001;-73
2022/12/02 05:19:59;;;;;;;46.28;7.68;;;;;;;21.32;59.89;100104.56;7312384;19;129026;-70
2022/12/02 05:22:24;;;;;;;36.30;7.15;;;;;;;21.31;59.76;100108.97;7310814;19;129390;-71
2022/12/02 05:24:50;;;;;;;34.22;6.78;;;;;;;21.27;59.66;100106.72;7311259;19;129152;-73
2022/12/02 05:27:15;;;;;;;33.65;7.00;;;;;;;21.22;60.18;100117.53;7312107;19;129994;-70
2022/12/02 05:29:41;;;;;;;26.42;6.95;;;;;;;21.24;60.36;100118.25;7312760;19;128934;-71
2022/12/02 05:32:06;;;;;;;26.48;7.20;;;;;;;21.25;59.56;100112.09;7309093;19;129681;-72
2022/12/02 05:34:31;;;;;;;29.52;6.75;;;;;;;21.26;59.93;100116.34;7311959;19;129910;-73
2022/12/02 05:36:57;;;;;;;47.70;7.85;;;;;;;21.23;59.37;100111.38;7309575;19;130600;-73
2022/12/02 05:39:22;;;;;;;22.80;6.63;;;;;;;21.31;59.77;100119.44;7312061;19;128876;-73
2022/12/02 05:41:48;;;;;;;36.85;7.68;;;;;;;21.33;59.85;100117.53;7308070;19;128935;-71
2022/12/02 05:44:25;;;;;;;51.83;8.67;;;;;;;21.38;59.39;100128.44;7310431;19;129684;-69
2022/12/02 05:46:52;;;;;;;57.97;8.63;;;;;;;21.44;59.22;100120.06;7309871;19;129989;-68
2022/12/02 05:49:22;;;;;;;43.92;7.80;;;;;;;21.45;58.89;100123.53;7311278;19;129051;-71
2022/12/02 05:51:54;;;;;;;35.95;7.32;;;;;;;21.51;58.76;100121.25;7306701;19;129417;-72
2022/12/02 05:54:19;;;;;;;40.88;7.50;;;;;;;21.55;58.66;100121.81;7310251;19;129214;-71
2022/12/02 05:56:46;;;;;;;46.63;7.45;;;;;;;21.62;58.93;100118.56;7308318;19;131898;-71
2022/12/02 05:59:17;;;;;;;35.60;6.72;;;;;;;21.67;58.22;100120.78;7311007;19;129371;-68
2022/12/02 06:01:47;;;;;;;31.27;6.65;;;;;;;21.62;58.61;100099.41;7315693;19;129444;-72
2022/12/02 06:04:16;;;;;;;34.67;7.88;;;;;;;21.76;58.57;100126.16;7314480;19;129327;-68
2022/12/02 06:06:42;;;;;;;33.72;7.18;;;;;;;21.81;58.53;100121.34;7315461;19;133063;-71
2022/12/02 06:09:21;;;;;;;42.45;7.38;;;;;;;21.86;57.93;100119.19;7317815;19;129673;-72
2022/12/02 06:11:47;;;;;;;45.30;7.70;;;;;;;21.87;58.01;100123.44;7315561;19;129076;-73
2022/12/02 06:14:16;;;;;;;47.17;7.47;;;;;;;21.81;58.30;100102.19;7315070;19;130314;-73
2022/12/02 06:17:04;;;;;;;27.92;7.13;;;;;;;21.96;57.96;100120.03;7314318;19;132781;-68
2022/12/02 06:19:56;;;;;;;24.15;6.30;;;;;;;21.96;57.80;100127.91;7315937;19;129236;-68
2022/12/02 06:22:25;;;;;;;24.75;6.80;;;;;;;21.98;57.44;100125.97;7315755;19;129060;-73
2022/12/02 06:24:54;;;;;;;56.80;8.77;;;;;;;21.98;57.84;100134.81;7316633;19;129671;-73
2022/12/02 06:27:20;;;;;;;41.70;7.45;;;;;;;21.95;57.59;100133.25;7314151;19;129810;-73
2022/12/02 06:29:53;;;;;;;44.60;7.72;;;;;;;21.95;57.81;100133.25;7316733;19;128777;-73
2022/12/02 06:32:21;;;;;;;36.90;7.45;;;;;;;21.88;57.65;100127.72;7313645;19;130214;-72
2022/12/02 06:34:49;;;;;;;34.80;7.00;;;;;;;21.88;57.95;100127.72;7315369;19;132102;-72
2022/12/02 06:37:20;;;;;;;31.42;7.10;;;;;;;21.86;57.71;100136.66;7313947;19;129932;-73
2022/12/02 06:39:49;;;;;;;42.63;7.60;;;;;;;21.80;58.22;100130.16;7329210;19;128810;-68
2022/12/02 06:42:21;;;;;;;33.63;7.38;;;;;;;21.75;58.65;100129.66;7312392;19;129792;-67
2022/12/02 06:45:05;;;;;;;17.60;6.10;;;;;;;21.73;58.42;100126.34;7316024;19;129586;-72
2022/12/02 06:47:33;;;;;;;23.23;6.22;;;;;;;21.69;58.63;100121.50;7316387;19;129235;-72
2022/12/02 06:50:24;;;;;;;48.33;7.72;;;;;;;21.67;58.32;100132.09;7315012;19;129754;-68
2022/12/02 06:52:50;;;;;;;38.38;7.63;;;;;;;21.64;58.84;100134.97;7314792;19;130295;-69
2022/12/02 06:55:33;;;;;;;62.60;9.02;;;;;;;21.61;59.10;100132.63;7316024;19;129131;-70
2022/12/02 06:58:13;;;;;;;46.00;8.10;;;;;;;21.60;59.01;100136.16;7315118;19;129426;-67
2022/12/02 07:00:39;;;;;;;39.05;7.63;;;;;;;21.48;58.99;100121.50;7314709;19;129537;-71
2022/12/02 07:03:29;;;;;;;28.40;6.65;;;;;;;21.43;59.04;100115.81;7317608;19;130837;-69
2022/12/02 07:05:57;;;;;;;34.42;7.35;;;;;;;21.55;58.81;100133.09;7316388;19;130750;-72
2022/12/02 07:08:24;;;;;;;29.40;7.03;;;;;;;21.55;58.81;100143.56;7314772;19;132183;-73
2022/12/02 07:10:49;;;;;;;45.00;7.72;;;;;;;21.53;58.81;100135.03;7312565;19;129165;-73
2022/12/02 07:13:17;;;;;;;34.22;7.30;;;;;;;21.49;58.99;100127.53;7312674;19;129082;-73
2022/12/02 07:15:43;;;;;;;28.10;6.72;;;;;;;21.49;58.86;100140.63;7316907;19;129972;-68
2022/12/02 07:18:20;;;;;;;22.85;6.63;;;;;;;21.44;58.98;100141.00;7315173;19;129569;-72
2022/12/02 07:20:46;;;;;;;29.63;7.32;;;;;;;21.46;58.71;100144.34;7314790;19;129403;-69
2022/12/02 07:23:18;;;;;;;42.93;7.53;;;;;;;21.43;58.87;100139.34;7316090;19;128843;-70
2022/12/02 07:25:44;;;;;;;41.20;7.80;;;;;;;21.39;58.83;100130.09;7314710;19;129392;-68
2022/12/02 07:28:22;;;;;;;23.27;6.03;;;;;;;21.37;59.56;100128.56;7315418;19;129528;-72
2022/12/02 07:30:55;;;;;;;25.05;6.03;;;;;;;21.36;59.10;100138.19;7316106;19;128739;-70
2022/12/02 07:33:21;;;;;;;29.08;6.55;;;;;;;21.35;59.24;100141.78;7324416;19;129347;-70
2022/12/02 07:35:46;;;;;;;70.80;9.40;;;;;;;21.35;59.59;100136.53;7314919;19;128705;-70
2022/12/02 07:38:11;;;;;;;27.07;6.87;;;;;;;21.36;59.40;100132.13;7314781;19;130124;-76
2022/12/02 07:40:38;;;;;;;55.77;8.03;;;;;;;21.35;59.12;100136.53;7314522;19;129304;-69
2022/12/02 07:43:04;;;;;;;33.35;7.05;;;;;;;21.34;59.65;100140.09;7314597;19;129140;-69
2022/12/02 07:45:30;;;;;;;44.00;7.83;;;;;;;21.34;59.20;100134.88;7315471;19;130648;-73
2022/12/02 07:47:55;;;;;;;33.05;7.05;;;;;;;21.33;59.33;100133.22;7313909;19;129653;-73
2022/12/02 07:50:20;;;;;;;27.60;6.70;;;;;;;21.31;59.67;100129.88;7314026;19;129097;-73
2022/12/02 07:52:46;;;;;;;34.83;7.32;;;;;;;21.34;59.25;100134.03;7314604;19;129412;-74
2022/12/02 07:55:11;;;;;;;28.27;7.00;;;;;;;21.32;59.80;100131.53;7315363;19;129525;-71
2022/12/02 07:57:38;;;;;;;35.35;7.63;;;;;;;21.35;59.33;100126.09;7314892;19;129799;-74
2022/12/02 08:00:05;;;;;;;36.13;7.78;;;;;;;21.34;59.79;100127.00;7314980;19;129257;-70
2022/12/02 08:02:31;;;;;;;23.27;6.45;;;;;;;21.33;59.41;100127.16;7312420;19;129673;-73
2022/12/02 08:04:56;;;;;;;48.63;8.63;;;;;;;21.35;59.23;100136.53;7315314;19;129037;-72
2022/12/02 08:07:21;;;;;;;21.90;6.30;;;;;;;21.33;59.70;100140.22;7313318;19;132893;-69
2022/12/02 08:09:47;;;;;;;38.47;7.22;;;;;;;21.35;59.50;100141.78;7313019;19;130719;-73
2022/12/02 08:12:13;;;;;;;36.60;7.60;;;;;;;21.34;59.84;100134.88;7308412;19;129921;-68
2022/12/02 08:14:38;;;;;;;41.63;8.07;;;;;;;21.30;59.03;100133.47;7314296;19;129618;-73
2022/12/02 08:17:03;;;;;;;26.45;7.40;;;;;;;21.30;58.83;100137.88;7316263;19;129617;-72
2022/12/02 08:19:29;;;;;;;29.00;7.53;;;;;;;21.28;59.32;100132.75;7320884;19;129024;-70
2022/12/02 08:21:54;;;;;;;23.05;7.18;;;;;;;21.29;58.95;100136.19;7308151;19;129562;-74
2022/12/02 08:24:19;;;;;;;69.90;11.32;;;;;;;21.30;59.12;100128.25;7307598;19;130754;-70
2022/12/02 08:26:45;;;;;;;79.30;11.50;;;;;;;21.28;58.99;100135.38;7293967;19;131201;-71
2022/12/02 08:29:10;;;;;;;35.63;7.78;;;;;;;21.28;59.67;100130.13;7307057;19;129231;-74
2022/12/02 08:31:36;;;;;;;153.57;17.35;;;;;;;21.31;59.10;100142.97;7304252;19;129249;-75
2022/12/02 08:34:01;;;;;;;34.95;8.15;;;;;;;21.29;59.18;100118.72;7311733;19;129838;-71
2022/12/02 08:36:27;;;;;;;40.33;7.82;;;;;;;21.35;58.95;100131.31;7312539;19;129537;-69
2022/12/02 08:38:52;;;;;;;31.73;6.90;;;;;;;21.36;58.94;100130.34;7310887;19;129817;-74
2022/12/02 08:41:18;;;;;;;46.55;8.52;;;;;;;21.39;58.99;100132.72;7311769;19;129014;-73
2022/12/02 08:43:44;;;;;;;45.33;8.90;;;;;;;21.42;59.20;100132.44;7311839;19;132429;-74
2022/12/02 08:46:09;;;;;;;42.00;9.23;;;;;;;21.35;58.70;100115.63;7310237;19;132313;-74
2022/12/02 08:48:35;;;;;;;37.27;8.67;;;;;;;21.41;58.81;100124.72;7312531;19;128831;-74
2022/12/02 08:51:01;;;;;;;54.20;9.43;;;;;;;21.44;59.15;100127.94;7309682;19;129097;-75
2022/12/02 08:53:26;;;;;;;33.00;8.13;;;;;;;21.43;59.43;100134.13;7313950;19;129668;-74
2022/12/02 08:55:51;;;;;;;33.63;7.68;;;;;;;21.42;59.32;100132.44;7311397;19;129268;-70
2022/12/02 08:58:17;;;;;;;37.03;8.20;;;;;;;21.40;59.35;100144.81;7311821;19;129323;-75
2022/12/02 09:00:42;;;;;;;44.83;8.53;;;;;;;21.43;58.78;100149.81;7309725;19;129967;-70
2022/12/02 09:03:09;;;;;;;45.17;8.90;;;;;;;21.38;58.79;100136.28;7310774;19;132669;-74
2022/12/02 09:05:36;;;;;;;31.75;7.95;;;;;;;21.40;59.52;100155.28;7311230;19;132397;-76
2022/12/02 09:08:02;;;;;;;56.40;9.70;;;;;;;21.43;58.93;100162.91;7308973;19;129935;-75
2022/12/02 09:10:28;;;;;;;25.37;6.83;;;;;;;21.44;59.02;100138.38;7313907;19;129256;-72
2022/12/02 09:12:53;;;;;;;31.57;7.70;;;;;;;21.44;58.90;100135.78;7323438;19;129950;-74
2022/12/02 09:15:20;;;;;;;23.35;6.93;;;;;;;21.41;59.06;100120.34;7312136;19;130470;-70
2022/12/02 09:17:45;;;;;;;49.58;8.60;;;;;;;21.43;58.95;100134.13;7310402;19;129089;-74
2022/12/02 09:20:12;;;;;;;36.37;9.20;;;;;;;21.45;59.46;100131.38;7309446;19;129410;-75
2022/12/02 09:22:37;;;;;;;26.50;6.85;;;;;;;21.44;58.97;100127.94;7309805;19;128998;-75
2022/12/02 09:25:03;;;;;;;37.17;8.23;;;;;;;21.41;59.37;100112.50;7311254;19;132397;-74
2022/12/02 09:27:29;;;;;;;45.17;8.50;;;;;;;21.46;59.38;100115.56;7308976;19;130137;-74
2022/12/02 09:29:55;;;;;;;47.78;9.20;;;;;;;21.46;58.98;100110.31;7309376;19;129530;-76
2022/12/02 09:32:20;;;;;;;30.95;7.80;;;;;;;21.48;58.59;100118.88;7311256;19;129929;-74
2022/12/02 09:34:46;;;;;;;23.20;7.30;;;;;;;21.49;58.86;100110.06;7315136;19;129425;-75
2022/12/02 09:37:11;;;;;;;40.53;8.07;;;;;;;21.50;58.92;100110.91;7319182;19;130031;-71
2022/12/02 09:39:36;;;;;;;38.60;8.90;;;;;;;21.50;58.72;100114.34;7317531;19;129156;-75
2022/12/02 09:42:02;;;;;;;37.85;7.95;;;;;;;21.47;58.61;100119.81;7312158;19;132648;-75
2022/12/02 09:44:27;;;;;;;31.73;7.78;;;;;;;21.47;59.30;100104.13;7317659;19;129953;-74
2022/12/02 09:46:53;;;;;;;52.00;8.90;;;;;;;21.47;59.04;100108.56;7316338;19;129729;-70
2022/12/02 09:49:18;;;;;;;20.40;7.37;;;;;;;21.40;58.86;100092.50;7316840;19;129009;-69
2022/12/02 09:51:43;;;;;;;30.90;7.40;;;;;;;21.40;59.16;100102.16;7312839;19;129671;-74
2022/12/02 09:54:14;;;;;;;32.78;8.20;;;;;;;21.43;58.99;100107.97;7315079;19;131732;-74
2022/12/02 09:56:40;;;;;;;53.72;8.95;;;;;;;21.43;59.05;100112.38;7315562;19;128878;-76
2022/12/02 09:59:14;;;;;;;39.43;8.63;;;;;;;21.37;59.14;100087.53;7315413;19;129201;-71
2022/12/02 10:01:43;;;;;;;37.13;8.52;;;;;;;21.43;58.81;100096.66;7315653;19;129466;-74
2022/12/02 10:04:10;;;;;;;35.53;8.05;;;;;;;21.45;58.92;100100.81;7324906;19;129892;-69
2022/12/02 10:06:35;;;;;;;37.42;8.23;;;;;;;21.46;58.70;100110.31;7327331;19;129062;-74
2022/12/02 10:09:01;;;;;;;26.00;8.13;;;;;;;21.37;59.11;100081.50;7317633;19;129512;-76
2022/12/02 10:11:31;;;;;;;25.20;7.27;;;;;;;21.47;59.01;100101.50;7317008;19;129939;-74
2022/12/02 10:13:57;;;;;;;48.85;8.88;;;;;;;21.38;59.14;100083.97;7317640;19;133642;-74
2022/12/02 10:16:22;;;;;;;24.40;7.23;;;;;;;21.47;59.20;100101.50;7317689;19;129242;-75
2022/12/02 10:18:48;;;;;;;28.92;7.97;;;;;;;21.48;59.08;100097.13;7318709;19;129924;-75
2022/12/02 10:21:14;;;;;;;25.17;7.10;;;;;;;21.51;58.62;100099.47;7316149;19;129488;-76
2022/12/02 10:24:09;;;;;;;34.60;7.88;;;;;;;21.50;58.68;100087.38;7318375;19;129863;-74
2022/12/02 10:26:49;;;;;;;29.83;8.18;;;;;;;21.49;59.19;100091.75;7314669;19;129544;-71
2022/12/02 10:29:27;;;;;;;46.28;8.85;;;;;;;21.49;59.24;100104.84;7316174;19;129517;-70
2022/12/02 10:32:00;;;;;;;42.78;8.43;;;;;;;21.49;58.67;100096.16;7313938;19;132117;-76
2022/12/02 10:34:27;;;;;;;39.72;8.32;;;;;;;21.46;59.15;100086.78;7318612;19;129516;-74
2022/12/02 10:36:53;;;;;;;32.72;8.43;;;;;;;21.48;59.15;100095.34;7316014;19;129498;-75
2022/12/02 10:39:26;;;;;;;44.53;9.23;;;;;;;21.45;58.76;100095.56;7317671;19;129083;-71
2022/12/02 10:42:04;;;;;;;28.40;7.88;;;;;;;21.37;58.90;100084.09;7315752;19;129734;-73
2022/12/02 10:44:33;;;;;;;;;;;;;;;21.45;59.01;100089.53;7318251;19;129661;-75
2022/12/02 10:47:13;;;;;;;42.88;9.15;;;;;;;21.42;58.94;100084.56;7315838;19;128841;-72
2022/12/02 10:49:44;;;;;;;41.60;8.45;;;;;;;21.45;59.29;100095.56;7315622;19;129533;-74
2022/12/02 10:52:11;;;;;;;27.95;8.20;;;;;;;21.45;59.04;100085.09;7313604;19;131979;-70
2022/12/02 10:54:40;;;;;;;15.57;7.38;;;;;;;21.47;59.55;100088.44;7317730;19;128911;-75
2022/12/02 10:57:12;;;;;;;30.98;7.70;;;;;;;21.48;59.36;100084.88;7316841;19;129014;-73
2022/12/02 10:59:37;;;;;;;57.72;9.68;;;;;;;21.45;59.36;100079.88;7324272;19;128820;-70
2022/12/02 11:02:25;;;;;;;38.03;7.57;;;;;;;21.37;58.80;100061.38;7314974;19;129577;-70
2022/12/02 11:04:52;;;;;;;22.08;7.38;;;;;;;21.45;59.00;100077.25;7318045;19;129775;-71
2022/12/02 11:07:24;;;;;;;32.10;8.15;;;;;;;21.50;58.88;100076.91;7314707;19;129274;-75
2022/12/02 11:09:53;;;;;;;35.65;8.77;;;;;;;21.48;59.26;100069.19;7317243;19;128981;-74
2022/12/02 11:12:58;;;;;;;55.08;9.55;;;;;;;21.50;58.91;100067.25;7312311;19;133330;-75
2022/12/02 11:15:38;;;;;;;27.65;7.30;;;;;;;21.50;58.96;100067.25;7316214;19;129726;-75